Terminal Aerodrome Forecast
Issued by NWS

Home | Current Version | Previous Version | Text Only | Print | Product List | Glossary Off
Versions: 1 2 3 4 5 6 7 8 9 10 11 12 13

087
FTUS42 KMHX 181139
TAFOAJ
TAF
KOAJ 181139Z 1812/1912 19005KT 3SM BR SKC
     FM181300 22004KT P6SM SKC
     FM181700 23008G16KT P6SM BKN250
     FM190200 23004KT P6SM BKN100
     FM191100 27003KT P6SM SCT070
      AMD LTD TO CLD VIS AND WIND=

USA.gov is the U.S. government's official web portal to all federal, state and local government web resources and services.